Pagrindinis puslapis
METAR-TAF:

METAR-TAF

Oro uostai :

Luksoras, Egiptas

platuma: 25-40N, ilguma: 032-42E, Aukštis: 93 m

Dabartinis oras

Ataskaita buvo paskelbta 1 valandą ir 18 minutes, ne 08:00 UTC
Vėjas 4 kt iš Pietvakarių
Temperatūra 34°C
Drėgmė 26%
Slėgis 1009 hPa
Matomumas 10 km arba daugiau
nėra debesų žemiau 1500 m ir nėra kamuolinių lietaus debesų

METAR: HELX 020800Z 22004KT CAVOK 34/12 Q1009 NOSIG

Laikas: 11:18 (09:18 UTC)

Prognozė

Ataskaita buvo paskelbta 4 valandos ir 18 minutes, ne 05:00 UTC
Prognozė galioja nuo 02 metu 06 UTC su 03 metu 12 UTC
Vėjas 8 kt iš Šiaurės/Šiaurės Vakarų
Matomumas 10 km arba daugiau
nėra debesų žemiau 1500 m ir nėra kamuolinių lietaus debesų
Laikinai
nuo 02 metu 06 UTC su 02 metu 09 UTC
Vėjas 3 kt nuo kintamojo kryptimis
Matomumas: 5000 m
migla

TAF: HELX 020500Z 0206/0312 34008KT CAVOK TEMPO 0206/0209 VRB03KT 5000 HZ NSC

Orai ataskaitas ir orų prognozės (METAR, TAF).

turimą stotys yra geltonos ir raudonos taškus žemėlapyje.

Perkelti pele per norėdami pamatyti stoties vardą.

Tada spustelėkite, norėdami matyti oro stebėjimo ir prognozės.

Norėdami pakeisti žemėlapį: spustelėkite ant žalios mygtukų su juodo kryžiaus žemyn,; žalią mygtuką su brūkšneliu, jei norite nutolinti; arba žalių rodyklių gretimoms žemėlapius.


METAR-TAF: